createdAt,value
2023-03-10T00:03:14.710Z,14652.50
2023-03-10T00:07:16.330Z,14630.03
2023-03-10T00:11:17.892Z,14621.84
2023-03-10T00:15:20.850Z,14630.03
2023-03-10T00:19:22.487Z,14619.81
2023-03-10T00:23:23.931Z,14611.63
2023-03-10T00:27:25.549Z,14638.19
2023-03-10T00:31:28.361Z,14625.94
2023-03-10T00:35:29.844Z,14658.63
2023-03-10T00:39:31.468Z,14642.28
2023-03-10T00:43:33.651Z,14648.41
2023-03-10T00:47:36.513Z,14644.34
2023-03-10T00:51:37.881Z,14623.91
2023-03-10T00:55:39.299Z,14619.81
2023-03-10T00:59:49.998Z,14644.34
2023-03-10T01:03:54.871Z,14605.50
2023-03-10T01:07:56.562Z,14607.53
2023-03-10T01:11:58.030Z,14576.88
2023-03-10T01:16:00.882Z,14550.31
2023-03-10T01:20:06.277Z,14595.28
2023-03-10T01:24:08.221Z,14515.56
2023-03-10T01:28:10.199Z,14444.03
2023-03-10T01:32:11.658Z,14399.06
2023-03-10T01:36:17.514Z,14358.19
2023-03-10T01:40:19.282Z,14347.97
2023-03-10T01:44:21.262Z,14347.97
2023-03-10T01:48:24.037Z,14333.66
2023-03-10T01:52:31.022Z,14288.69
2023-03-10T01:56:35.134Z,14251.91
2023-03-10T02:00:36.823Z,14268.25
2023-03-10T02:04:43.006Z,14258.03
2023-03-10T02:08:50.274Z,14333.66
2023-03-10T02:12:51.924Z,14335.69
2023-03-10T02:16:53.299Z,14435.84
2023-03-10T02:21:03.637Z,14472.63
2023-03-10T02:25:17.786Z,14525.78
2023-03-10T02:29:25.250Z,14548.25
2023-03-10T02:33:30.495Z,14501.25
2023-03-10T02:37:34.603Z,14519.66
2023-03-10T02:41:38.545Z,14472.63
2023-03-10T02:45:43.707Z,14480.81
2023-03-10T02:49:45.792Z,14421.53
2023-03-10T02:53:47.312Z,14439.94
2023-03-10T02:57:48.736Z,14403.16
2023-03-10T03:01:51.524Z,14454.25
2023-03-10T03:05:53.310Z,14433.81
2023-03-10T03:09:55.035Z,14437.91
2023-03-10T03:13:56.538Z,14429.72
2023-03-10T03:17:59.516Z,14444.03
2023-03-10T03:22:01.087Z,14444.03
2023-03-10T03:26:02.681Z,14386.81
2023-03-10T03:30:08.108Z,14341.84
2023-03-10T03:34:11.101Z,14366.34
2023-03-10T03:38:12.829Z,14358.19
2023-03-10T03:42:14.484Z,14368.41
2023-03-10T03:46:15.973Z,14354.09
2023-03-10T03:50:22.382Z,14411.31
2023-03-10T03:54:24.363Z,14378.63
2023-03-10T03:58:26.275Z,14419.50
2023-03-10T04:02:27.903Z,14374.53
2023-03-10T04:06:30.923Z,14384.75
2023-03-10T04:10:32.368Z,14386.81
2023-03-10T04:14:34.143Z,14378.63
2023-03-10T04:18:35.686Z,14397.03
2023-03-10T04:22:38.579Z,14376.56
2023-03-10T04:26:40.443Z,14382.72
2023-03-10T04:30:43.132Z,14366.34
2023-03-10T04:34:44.584Z,14350.00
2023-03-10T04:38:47.841Z,14323.44
2023-03-10T04:42:49.248Z,14366.34
2023-03-10T04:46:50.714Z,14358.19
2023-03-10T04:50:55.926Z,14376.56
2023-03-10T04:54:59.987Z,14374.53
2023-03-10T04:59:01.651Z,14341.84
2023-03-10T05:03:03.094Z,14394.97
2023-03-10T05:07:05.072Z,14372.50
2023-03-10T05:11:08.677Z,14364.31
2023-03-10T05:15:10.806Z,14358.19
2023-03-10T05:19:12.310Z,14407.25
2023-03-10T05:23:13.968Z,14380.66
2023-03-10T05:27:17.017Z,14388.84
2023-03-10T05:31:18.746Z,14376.56
2023-03-10T05:35:21.253Z,14386.81
2023-03-10T05:39:22.755Z,14333.66
2023-03-10T05:43:25.894Z,14329.56
2023-03-10T05:47:27.334Z,14305.03
2023-03-10T05:51:29.059Z,14352.06
2023-03-10T05:55:30.463Z,14313.22
2023-03-10T05:59:33.301Z,14300.97
2023-03-10T06:03:35.760Z,14333.66
2023-03-10T06:07:37.225Z,14345.91
2023-03-10T06:11:38.775Z,14309.13
2023-03-10T06:15:41.591Z,14339.78
2023-03-10T06:19:43.543Z,14335.69
2023-03-10T06:23:44.995Z,14305.03
2023-03-10T06:27:46.755Z,14337.75
2023-03-10T06:31:50.096Z,14378.63
2023-03-10T06:35:52.254Z,14341.84
2023-03-10T06:39:53.695Z,14423.59
2023-03-10T06:43:55.337Z,14392.94
2023-03-10T06:47:58.795Z,14403.16
2023-03-10T06:52:01.474Z,14399.06
2023-03-10T06:56:05.645Z,14425.63
2023-03-10T07:00:09.364Z,14495.13
2023-03-10T07:04:12.852Z,14448.13
2023-03-10T07:08:14.563Z,14452.19
2023-03-10T07:12:16.248Z,14452.19
2023-03-10T07:16:18.197Z,14460.38
2023-03-10T07:20:22.269Z,14482.88
2023-03-10T07:24:25.503Z,14482.88
2023-03-10T07:28:27.364Z,14464.47
2023-03-10T07:32:28.793Z,14511.47
2023-03-10T07:36:33.954Z,14493.09
2023-03-10T07:40:35.619Z,14476.72
2023-03-10T07:44:37.345Z,14527.81
2023-03-10T07:48:39.373Z,14505.34
2023-03-10T07:52:42.228Z,14525.78
2023-03-10T07:56:43.887Z,14595.28
2023-03-10T08:00:45.417Z,14699.53
2023-03-10T08:04:47.026Z,14930.50
2023-03-10T08:08:50.701Z,14850.78
2023-03-10T08:12:54.125Z,14877.34
2023-03-10T08:16:56.283Z,14867.13
2023-03-10T08:20:58.449Z,14865.09
2023-03-10T08:25:02.017Z,14863.03
2023-03-10T08:29:03.554Z,14885.53
2023-03-10T08:33:05.065Z,14889.63
2023-03-10T08:37:06.552Z,14926.41
2023-03-10T08:41:11.194Z,14959.13
2023-03-10T08:45:12.968Z,14950.94
2023-03-10T08:49:15.856Z,14914.16
2023-03-10T08:53:17.288Z,14885.53
2023-03-10T08:57:21.991Z,14967.28
2023-03-10T09:01:23.395Z,14963.22
2023-03-10T09:05:24.906Z,14963.22
2023-03-10T09:09:26.565Z,14997.97
2023-03-10T09:13:29.424Z,15016.34
2023-03-10T09:17:31.172Z,15034.75
2023-03-10T09:21:33.679Z,15051.09
2023-03-10T09:25:35.525Z,15002.03
2023-03-10T09:29:42.952Z,15053.16
2023-03-10T09:33:46.540Z,15061.31
2023-03-10T09:37:49.327Z,15024.53
2023-03-10T09:42:13.339Z,15124.69
2023-03-10T09:46:22.832Z,15077.69
2023-03-10T09:50:33.633Z,15141.06
2023-03-10T09:54:45.983Z,15149.22
2023-03-10T09:58:50.875Z,15124.69
2023-03-10T10:03:02.206Z,15165.59
2023-03-10T10:07:12.239Z,15204.44
2023-03-10T10:11:16.166Z,15243.28
2023-03-10T10:15:20.487Z,15188.06
2023-03-10T10:19:25.113Z,15173.75
2023-03-10T10:23:33.042Z,15275.97
2023-03-10T10:27:35.906Z,15243.28
2023-03-10T10:31:37.666Z,15220.78
2023-03-10T10:35:42.785Z,15139.00
2023-03-10T10:39:45.011Z,15153.31
2023-03-10T10:43:48.771Z,15110.38
2023-03-10T10:47:52.155Z,15102.22
2023-03-10T10:52:00.513Z,15118.56
2023-03-10T10:56:05.717Z,15042.94
2023-03-10T11:00:16.076Z,14965.25
2023-03-10T11:04:18.928Z,15010.22
2023-03-10T11:08:31.879Z,15002.03
2023-03-10T11:12:38.114Z,15010.22
2023-03-10T11:16:48.261Z,14940.72
2023-03-10T11:20:58.808Z,14932.53
2023-03-10T11:25:20.900Z,14889.63
2023-03-10T11:29:38.303Z,14863.03
2023-03-10T11:33:47.976Z,14848.75
2023-03-10T11:37:55.621Z,14783.31
2023-03-10T11:42:05.663Z,14773.09
2023-03-10T11:46:15.300Z,14793.53
2023-03-10T11:50:30.414Z,14766.97
2023-03-10T11:54:36.192Z,14703.59
2023-03-10T11:58:46.687Z,14726.09
2023-03-10T12:03:04.026Z,14701.56
2023-03-10T12:07:10.174Z,14746.53
2023-03-10T12:11:15.806Z,14732.22
2023-03-10T12:15:23.439Z,14730.19
2023-03-10T12:19:25.294Z,14752.66
2023-03-10T12:23:38.446Z,14717.91
2023-03-10T12:28:11.334Z,14734.28
2023-03-10T12:32:40.508Z,14728.13
2023-03-10T12:36:45.098Z,14717.91
2023-03-10T12:40:51.145Z,14689.31
2023-03-10T12:45:00.846Z,14713.81
2023-03-10T12:49:14.808Z,14730.19
2023-03-10T12:53:31.870Z,14681.13
2023-03-10T12:57:39.301Z,14760.84
2023-03-10T13:01:55.003Z,14717.91
2023-03-10T13:06:02.316Z,14705.66
2023-03-10T13:10:05.246Z,14703.59
2023-03-10T13:14:14.195Z,14695.44
2023-03-10T13:18:18.724Z,14660.69
2023-03-10T13:22:21.828Z,14652.50
2023-03-10T13:26:23.660Z,14648.41
2023-03-10T13:30:26.690Z,14615.72
2023-03-10T13:34:30.378Z,14646.38
2023-03-10T13:38:33.362Z,14668.84
2023-03-10T13:42:43.892Z,14630.03
2023-03-10T13:46:49.427Z,14615.72
2023-03-10T13:51:04.637Z,14640.25
2023-03-10T13:55:14.258Z,14656.59
2023-03-10T13:59:19.772Z,14715.88
2023-03-10T14:03:21.269Z,14685.22
2023-03-10T14:07:24.349Z,14736.31
2023-03-10T14:11:35.056Z,14730.19
2023-03-10T14:15:36.731Z,14769.03
2023-03-10T14:19:49.310Z,14769.03
2023-03-10T14:23:50.803Z,14783.31
2023-03-10T14:27:58.118Z,14787.41
2023-03-10T14:31:59.746Z,14771.06
2023-03-10T14:36:01.513Z,14807.84
2023-03-10T14:40:03.531Z,14787.41
2023-03-10T14:44:06.759Z,14791.50
2023-03-10T14:48:13.868Z,14820.13
2023-03-10T14:52:17.798Z,14791.50
2023-03-10T14:56:21.822Z,14814.00
2023-03-10T15:00:25.644Z,14836.47
2023-03-10T15:04:27.331Z,14787.41
2023-03-10T15:08:30.658Z,14787.41
2023-03-10T15:12:33.797Z,14811.94
2023-03-10T15:16:36.585Z,14807.84
2023-03-10T15:20:38.361Z,14809.91
2023-03-10T15:24:39.777Z,14807.84
2023-03-10T15:28:41.294Z,14805.81
2023-03-10T15:32:44.742Z,14801.72
2023-03-10T15:36:46.421Z,14826.25
2023-03-10T15:40:48.226Z,14852.81
2023-03-10T15:44:49.950Z,14811.94
2023-03-10T15:48:52.739Z,14818.06
2023-03-10T15:52:56.451Z,14799.69
2023-03-10T15:56:58.597Z,14832.38
2023-03-10T16:01:06.236Z,14824.22
2023-03-10T16:05:09.705Z,14816.03
2023-03-10T16:09:11.671Z,14826.25
2023-03-10T16:13:13.346Z,14811.94
2023-03-10T16:17:15.032Z,14816.03
2023-03-10T16:21:18.847Z,14822.16
2023-03-10T16:25:20.408Z,14811.94
2023-03-10T16:29:23.355Z,14785.38
2023-03-10T16:33:24.757Z,14799.69
2023-03-10T16:37:29.232Z,14816.03
2023-03-10T16:41:30.652Z,14830.34
2023-03-10T16:45:32.285Z,14877.34
2023-03-10T16:49:34.439Z,14871.22
2023-03-10T16:53:37.445Z,14873.25
2023-03-10T16:57:39.062Z,14877.34
2023-03-10T17:01:40.514Z,14910.06
2023-03-10T17:05:41.904Z,14920.28
2023-03-10T17:09:45.117Z,14905.97
2023-03-10T17:13:47.299Z,14932.53
2023-03-10T17:17:48.770Z,14893.72
2023-03-10T17:21:50.537Z,14889.63
2023-03-10T17:25:54.515Z,14938.69
2023-03-10T17:29:57.270Z,14922.31
2023-03-10T17:34:01.532Z,14912.09
2023-03-10T17:38:02.927Z,14940.72
2023-03-10T17:42:05.978Z,14928.47
2023-03-10T17:46:10.985Z,14944.81
2023-03-10T17:50:12.555Z,14938.69
2023-03-10T17:54:17.574Z,14883.50
2023-03-10T17:58:21.514Z,14955.03
2023-03-10T18:02:23.501Z,14973.44
2023-03-10T18:06:27.093Z,14957.06
2023-03-10T18:10:28.538Z,14969.34
2023-03-10T18:14:31.540Z,14920.28
2023-03-10T18:18:33.396Z,14957.06
2023-03-10T18:22:34.990Z,14963.22
2023-03-10T18:26:36.875Z,14946.84
2023-03-10T18:30:42.136Z,14987.75
2023-03-10T18:34:43.667Z,14950.94
2023-03-10T18:38:45.936Z,14963.22
2023-03-10T18:42:47.446Z,14991.81
2023-03-10T18:46:50.291Z,14979.56
2023-03-10T18:50:51.834Z,14975.47
2023-03-10T18:54:53.816Z,14973.44
2023-03-10T18:58:55.531Z,14944.81
2023-03-10T19:02:58.488Z,14932.53
2023-03-10T19:06:59.922Z,14963.22
2023-03-10T19:11:01.569Z,14955.03
2023-03-10T19:15:03.254Z,14959.13
2023-03-10T19:19:07.587Z,14987.75
2023-03-10T19:23:09.411Z,14971.38
2023-03-10T19:27:10.856Z,14971.38
2023-03-10T19:31:15.421Z,14973.44
2023-03-10T19:35:20.901Z,14971.38
2023-03-10T19:39:22.777Z,14989.78
2023-03-10T19:43:24.207Z,14961.16
2023-03-10T19:47:25.656Z,14973.44
2023-03-10T19:51:29.161Z,15018.41
2023-03-10T19:55:30.558Z,14983.66
2023-03-10T19:59:33.408Z,14965.25
2023-03-10T20:03:34.928Z,14973.44
2023-03-10T20:07:37.713Z,14955.03
2023-03-10T20:11:41.433Z,14959.13
2023-03-10T20:15:43.119Z,14971.38
2023-03-10T20:19:44.610Z,14965.25
2023-03-10T20:23:47.482Z,14975.47
2023-03-10T20:27:50.805Z,14922.31
2023-03-10T20:31:52.306Z,14963.22
2023-03-10T20:35:54.102Z,14991.81
2023-03-10T20:39:56.907Z,14987.75
2023-03-10T20:43:58.322Z,14975.47
2023-03-10T20:48:00.323Z,14993.88
2023-03-10T20:52:02.450Z,14963.22
2023-03-10T20:56:10.128Z,14936.63
2023-03-10T21:00:12.413Z,14924.38
2023-03-10T21:04:13.902Z,14946.84
2023-03-10T21:08:17.916Z,14959.13
2023-03-10T21:12:20.871Z,14983.66
2023-03-10T21:16:22.324Z,14975.47
2023-03-10T21:20:23.968Z,15004.09
2023-03-10T21:24:25.610Z,14957.06
2023-03-10T21:28:28.577Z,14971.38
2023-03-10T21:32:30.352Z,14955.03
2023-03-10T21:36:31.800Z,14973.44
2023-03-10T21:40:33.476Z,15004.09
2023-03-10T21:44:37.397Z,14973.44
2023-03-10T21:48:38.901Z,14959.13
2023-03-10T21:52:40.826Z,15008.19
2023-03-10T21:56:43.045Z,14995.91
2023-03-10T22:00:46.024Z,14963.22
2023-03-10T22:04:48.278Z,14963.22
2023-03-10T22:08:50.574Z,14948.91
2023-03-10T22:12:52.009Z,14991.81
2023-03-10T22:16:55.438Z,14995.91
2023-03-10T22:20:57.126Z,14963.22
2023-03-10T22:24:58.975Z,14995.91
2023-03-10T22:29:00.639Z,14985.69
2023-03-10T22:33:03.774Z,15040.88
2023-03-10T22:37:05.466Z,14991.81
2023-03-10T22:41:09.387Z,14995.91
2023-03-10T22:45:17.600Z,14991.81
2023-03-10T22:49:22.267Z,14983.66
2023-03-10T22:53:24.174Z,14983.66
2023-03-10T22:57:26.086Z,15008.19
2023-03-10T23:01:27.847Z,15016.34
2023-03-10T23:05:31.272Z,14991.81
2023-03-10T23:09:32.917Z,15024.53
2023-03-10T23:13:34.443Z,15012.28
2023-03-10T23:17:36.068Z,15020.44
2023-03-10T23:21:39.067Z,15020.44
2023-03-10T23:25:44.843Z,15030.66
2023-03-10T23:29:46.300Z,15004.09
2023-03-10T23:33:48.843Z,15044.97
2023-03-10T23:37:53.295Z,15051.09
2023-03-10T23:41:55.263Z,15044.97
2023-03-10T23:45:56.781Z,15018.41
2023-03-10T23:49:58.679Z,15057.25
2023-03-10T23:54:01.669Z,15044.97
2023-03-10T23:58:04.128Z,15040.88
